Time;durP1;ratioP1;P1;durP2;ratioP2;P2;SDS_P1;SDS_P2;PMS_P1;PMS_P2;Temp;Humidity;BMP_temperature;BMP_pressure;BME280_temperature;BME280_humidity;BME280_pressure;Samples;Min_cycle;Max_cycle;Signal;HPM_P1;HPM_P2
2023/04/07 00:00:55;;;;;;;11.80;5.40;;;6.30;99.90;;;;;;5066947;28;20081;-61
2023/04/07 00:03:22;;;;;;;16.48;5.22;;;6.20;99.90;;;;;;5067977;28;20039;-63
2023/04/07 00:05:48;;;;;;;14.77;6.03;;;6.10;99.90;;;;;;5068604;28;20135;-62
2023/04/07 00:08:13;;;;;;;14.68;6.13;;;6.10;99.90;;;;;;5068701;28;20131;-63
2023/04/07 00:10:39;;;;;;;13.00;6.38;;;6.00;99.90;;;;;;5066537;28;20779;-64
2023/04/07 00:13:04;;;;;;;11.45;5.18;;;6.00;99.90;;;;;;5068469;28;20032;-63
2023/04/07 00:15:30;;;;;;;15.75;5.70;;;5.90;99.90;;;;;;5066951;28;20074;-62
2023/04/07 00:17:58;;;;;;;11.98;5.43;;;5.90;99.90;;;;;;5068634;28;20376;-62
2023/04/07 00:20:24;;;;;;;13.52;5.85;;;5.80;99.90;;;;;;5067804;28;20035;-62
2023/04/07 00:22:50;;;;;;;14.85;6.15;;;5.80;99.90;;;;;;5068572;28;20107;-62
2023/04/07 00:25:15;;;;;;;16.30;5.85;;;5.70;99.90;;;;;;5049451;28;20349;-62
2023/04/07 00:27:41;;;;;;;15.25;6.22;;;5.70;99.90;;;;;;5063483;28;20033;-61
2023/04/07 00:30:07;;;;;;;11.05;5.03;;;5.70;99.90;;;;;;5048388;28;20372;-62
2023/04/07 00:32:33;;;;;;;16.33;6.43;;;5.60;99.90;;;;;;5029434;28;20036;-65
2023/04/07 00:34:59;;;;;;;13.13;5.80;;;5.60;99.90;;;;;;5030419;28;20068;-63
2023/04/07 00:37:24;;;;;;;18.70;6.35;;;5.50;99.90;;;;;;5047591;28;20075;-62
2023/04/07 00:39:51;;;;;;;12.23;5.63;;;5.50;99.90;;;;;;5063400;28;20106;-62
2023/04/07 00:42:17;;;;;;;14.52;6.43;;;5.50;99.90;;;;;;5067495;28;20028;-62
2023/04/07 00:44:43;;;;;;;15.55;6.70;;;5.50;99.90;;;;;;5067490;28;20051;-65
2023/04/07 00:47:09;;;;;;;15.88;6.82;;;5.50;99.90;;;;;;5048847;28;20468;-63
2023/04/07 00:49:36;;;;;;;16.83;7.00;;;5.40;99.90;;;;;;5067399;28;20020;-64
2023/04/07 00:52:03;;;;;;;17.75;7.68;;;5.40;99.90;;;;;;5066100;28;20029;-61
2023/04/07 00:54:30;;;;;;;15.43;7.47;;;5.30;99.90;;;;;;5065919;28;20114;-63
2023/04/07 00:56:56;;;;;;;14.68;6.65;;;5.30;99.90;;;;;;5067705;28;20043;-62
2023/04/07 00:59:25;;;;;;;15.02;7.28;;;5.40;99.90;;;;;;5067655;28;20025;-67
2023/04/07 01:02:11;;;;;;;13.30;6.63;;;5.40;99.90;;;;;;5064862;28;20059;-63
2023/04/07 01:04:39;;;;;;;14.80;6.60;;;5.50;99.90;;;;;;5066533;28;20478;-61
2023/04/07 01:07:27;;;;;;;16.48;6.90;;;5.50;99.90;;;;;;5053082;28;20040;-61
2023/04/07 01:10:05;;;;;;;17.08;6.88;;;5.60;99.90;;;;;;5069479;28;20477;-63
2023/04/07 01:13:01;;;;;;;14.10;6.25;;;5.60;99.90;;;;;;5070946;28;20028;-64
2023/04/07 01:15:32;;;;;;;15.57;7.13;;;5.70;99.90;;;;;;5064546;28;20076;-62
2023/04/07 01:18:19;;;;;;;13.40;6.10;;;5.70;99.90;;;;;;5071515;28;20037;-62
2023/04/07 01:20:49;;;;;;;14.90;6.57;;;5.70;99.90;;;;;;5071137;28;20112;-62
2023/04/07 01:23:24;;;;;;;14.18;6.00;;;5.60;99.90;;;;;;5067745;28;20037;-62
2023/04/07 01:26:33;;;;;;;13.35;6.05;;;5.60;99.90;;;;;;5071648;28;20025;-62
2023/04/07 01:29:17;;;;;;;14.55;6.32;;;5.60;99.90;;;;;;5049580;28;20047;-62
2023/04/07 01:31:45;;;;;;;13.38;5.63;;;5.60;99.90;;;;;;5069033;28;20089;-65
2023/04/07 01:34:13;;;;;;;16.42;6.45;;;5.60;99.90;;;;;;5068825;28;20502;-63
2023/04/07 01:36:40;;;;;;;14.32;6.75;;;5.60;99.90;;;;;;5067726;28;20031;-64
2023/04/07 01:39:07;;;;;;;12.93;5.75;;;5.60;99.90;;;;;;5071017;28;20468;-61
2023/04/07 01:41:33;;;;;;;15.90;6.70;;;5.60;99.90;;;;;;5048258;28;20029;-63
2023/04/07 01:44:01;;;;;;;14.60;6.45;;;5.60;99.90;;;;;;5052211;28;20044;-63
2023/04/07 01:46:27;;;;;;;14.40;6.65;;;5.50;99.90;;;;;;5069445;28;20090;-62
2023/04/07 01:48:54;;;;;;;12.48;5.78;;;5.50;99.90;;;;;;5071072;28;20078;-63
2023/04/07 01:51:21;;;;;;;15.32;5.68;;;5.50;99.90;;;;;;5070900;28;20468;-62
2023/04/07 01:53:47;;;;;;;14.50;6.20;;;5.50;99.90;;;;;;5069895;28;20122;-62
2023/04/07 01:56:14;;;;;;;12.93;6.38;;;5.50;99.90;;;;;;5061247;28;20040;-63
2023/04/07 01:58:40;;;;;;;13.05;6.38;;;5.50;99.90;;;;;;5064137;28;20043;-62
2023/04/07 02:01:05;;;;;;;14.05;6.10;;;5.50;99.90;;;;;;5062559;28;20033;-62
2023/04/07 02:03:50;;;;;;;14.98;6.45;;;5.50;99.90;;;;;;5064701;28;20028;-62
2023/04/07 02:06:20;;;;;;;15.88;6.63;;;5.40;99.90;;;;;;5050846;28;20052;-61
2023/04/07 02:08:48;;;;;;;14.20;6.23;;;5.50;99.90;;;;;;5049950;28;20611;-62
2023/04/07 02:11:19;;;;;;;18.20;7.55;;;5.50;99.90;;;;;;5054105;28;20279;-62
2023/04/07 02:13:46;;;;;;;15.32;7.13;;;5.50;99.90;;;;;;5049720;28;20290;-62
2023/04/07 02:16:12;;;;;;;13.35;6.47;;;5.50;99.90;;;;;;5050651;28;20025;-62
2023/04/07 02:18:39;;;;;;;16.42;7.55;;;5.50;99.90;;;;;;5050626;28;20029;-63
2023/04/07 02:21:07;;;;;;;17.00;7.15;;;5.60;99.90;;;;;;5069691;28;20432;-62
2023/04/07 02:23:34;;;;;;;16.30;7.10;;;5.50;99.90;;;;;;5069593;28;20127;-65
2023/04/07 02:26:00;;;;;;;17.02;7.18;;;5.50;99.90;;;;;;5069273;28;20634;-61
2023/04/07 02:28:26;;;;;;;15.88;6.97;;;5.50;99.90;;;;;;5051995;28;20025;-68
2023/04/07 02:30:51;;;;;;;17.90;7.35;;;5.50;99.90;;;;;;5069271;28;20029;-62
2023/04/07 02:33:17;;;;;;;13.85;6.78;;;5.60;99.90;;;;;;5068993;28;20036;-61
2023/04/07 02:35:43;;;;;;;15.13;6.85;;;5.50;99.90;;;;;;5033859;28;20049;-61
2023/04/07 02:38:08;;;;;;;15.95;7.28;;;5.50;99.90;;;;;;5050287;28;20029;-65
2023/04/07 02:40:35;;;;;;;17.60;7.45;;;5.60;99.90;;;;;;5049089;28;20036;-65
2023/04/07 02:43:01;;;;;;;18.85;6.75;;;5.50;99.90;;;;;;5050450;28;20036;-65
2023/04/07 02:45:27;;;;;;;14.88;6.70;;;5.50;99.90;;;;;;5056987;28;20025;-69
2023/04/07 02:47:52;;;;;;;15.60;6.68;;;5.40;99.90;;;;;;5069868;28;20124;-64
2023/04/07 02:50:18;;;;;;;15.48;6.93;;;5.40;99.90;;;;;;5068021;28;20064;-65
2023/04/07 02:52:44;;;;;;;13.32;6.13;;;5.30;99.90;;;;;;5068965;28;20040;-66
2023/04/07 02:55:10;;;;;;;17.70;6.97;;;5.30;99.90;;;;;;5046402;28;20036;-64
2023/04/07 02:57:35;;;;;;;16.08;7.10;;;5.40;99.90;;;;;;5067996;28;20036;-64
2023/04/07 03:00:01;;;;;;;18.17;7.13;;;5.40;99.90;;;;;;5069871;28;20103;-64
2023/04/07 03:02:27;;;;;;;15.63;7.22;;;5.40;99.90;;;;;;5068545;28;20488;-70
2023/04/07 03:04:52;;;;;;;18.90;7.32;;;5.40;99.90;;;;;;5068218;28;20138;-64
2023/04/07 03:07:18;;;;;;;17.75;7.72;;;5.40;99.90;;;;;;5068647;28;20068;-65
2023/04/07 03:09:44;;;;;;;22.02;7.82;;;5.50;99.90;;;;;;5068975;28;20055;-65
2023/04/07 03:12:10;;;;;;;15.65;7.03;;;5.40;99.90;;;;;;5068715;28;20058;-64
2023/04/07 03:14:36;;;;;;;18.20;7.53;;;5.40;99.90;;;;;;5066609;28;20035;-64
2023/04/07 03:17:03;;;;;;;19.15;7.00;;;5.40;99.90;;;;;;5067397;28;20028;-64
2023/04/07 03:19:28;;;;;;;20.55;7.97;;;5.40;99.90;;;;;;5069215;28;20533;-69
2023/04/07 03:21:54;;;;;;;17.40;7.05;;;5.40;99.90;;;;;;5068224;28;20040;-65
2023/04/07 03:24:20;;;;;;;16.85;7.95;;;5.40;99.90;;;;;;5069000;28;20416;-64
2023/04/07 03:26:45;;;;;;;17.75;8.07;;;5.40;99.90;;;;;;5064793;28;20033;-64
2023/04/07 03:29:11;;;;;;;17.33;7.60;;;5.40;99.90;;;;;;5068260;28;20028;-64
2023/04/07 03:31:37;;;;;;;22.25;8.35;;;5.40;99.90;;;;;;5068534;28;20032;-64
2023/04/07 03:34:03;;;;;;;17.27;8.38;;;5.40;99.90;;;;;;5069116;28;20032;-63
2023/04/07 03:36:30;;;;;;;19.58;8.15;;;5.40;99.90;;;;;;5045039;28;20044;-69
2023/04/07 03:38:56;;;;;;;19.75;8.85;;;5.40;99.90;;;;;;5067779;28;20040;-64
2023/04/07 03:41:22;;;;;;;21.00;9.02;;;5.40;99.90;;;;;;5043812;28;20580;-64
2023/04/07 03:43:47;;;;;;;19.45;8.57;;;5.40;99.90;;;;;;5030430;28;20086;-64
2023/04/07 03:46:13;;;;;;;21.38;9.05;;;5.40;99.90;;;;;;5048781;28;20037;-64
2023/04/07 03:48:39;;;;;;;21.90;8.80;;;5.40;99.90;;;;;;5048027;28;20032;-66
2023/04/07 03:51:05;;;;;;;22.45;9.50;;;5.40;99.90;;;;;;5030794;28;20037;-64
2023/04/07 03:53:31;;;;;;;24.55;10.13;;;5.50;99.90;;;;;;5048808;28;20057;-70
2023/04/07 03:55:57;;;;;;;22.88;9.85;;;5.50;99.90;;;;;;5065076;28;20343;-64
2023/04/07 03:58:23;;;;;;;41.75;16.80;;;5.40;99.90;;;;;;5068719;28;20458;-64
2023/04/07 04:00:48;;;;;;;34.45;13.50;;;5.50;99.90;;;;;;5068031;28;20103;-65
2023/04/07 04:03:14;;;;;;;26.90;11.75;;;5.50;99.90;;;;;;5068361;28;20032;-64
2023/04/07 04:05:40;;;;;;;25.27;10.75;;;5.50;99.90;;;;;;5049876;28;20063;-63
2023/04/07 04:08:06;;;;;;;26.98;11.15;;;5.50;99.90;;;;;;5068643;28;20078;-65
2023/04/07 04:10:31;;;;;;;29.50;12.18;;;5.50;99.90;;;;;;5046112;28;20029;-70
2023/04/07 04:12:59;;;;;;;27.08;11.45;;;5.50;99.90;;;;;;5064468;28;20021;-63
2023/04/07 04:15:25;;;;;;;25.25;11.80;;;5.50;99.90;;;;;;5068489;28;20464;-63
2023/04/07 04:17:54;;;;;;;29.13;11.98;;;5.50;99.90;;;;;;5046511;28;20044;-62
2023/04/07 04:20:21;;;;;;;27.42;10.88;;;5.50;99.90;;;;;;5066154;28;20029;-61
2023/04/07 04:22:46;;;;;;;24.92;10.77;;;5.50;99.90;;;;;;5067764;28;20078;-61
2023/04/07 04:25:16;;;;;;;25.60;11.38;;;5.50;99.90;;;;;;5068346;28;20032;-61
2023/04/07 04:27:42;;;;;;;21.33;8.97;;;5.50;99.90;;;;;;5066419;28;20112;-61
2023/04/07 04:30:08;;;;;;;25.73;11.13;;;5.50;99.90;;;;;;5050439;28;20108;-61
2023/04/07 04:32:34;;;;;;;25.40;11.43;;;5.50;99.90;;;;;;5066850;28;20163;-69
2023/04/07 04:35:00;;;;;;;28.13;11.80;;;5.50;99.90;;;;;;5068273;28;20071;-62
2023/04/07 04:37:26;;;;;;;28.15;11.80;;;5.60;99.90;;;;;;5050212;28;20029;-62
2023/04/07 04:39:52;;;;;;;28.67;11.95;;;5.60;99.90;;;;;;5048866;28;20104;-62
2023/04/07 04:42:17;;;;;;;24.38;10.95;;;5.60;99.90;;;;;;5071485;28;20415;-62
2023/04/07 04:44:43;;;;;;;27.50;11.25;;;5.60;99.90;;;;;;5052542;28;20044;-64
2023/04/07 04:47:09;;;;;;;25.38;11.20;;;5.70;99.90;;;;;;5069479;28;20028;-63
2023/04/07 04:49:34;;;;;;;26.80;10.93;;;5.70;99.90;;;;;;5060967;28;20066;-68
2023/04/07 04:52:00;;;;;;;25.60;11.52;;;5.70;99.90;;;;;;5058812;28;20029;-62
2023/04/07 04:54:26;;;;;;;24.17;10.85;;;5.70;99.90;;;;;;5064417;28;20377;-62
2023/04/07 04:56:52;;;;;;;19.88;9.02;;;5.70;99.90;;;;;;5055158;28;20028;-62
2023/04/07 04:59:17;;;;;;;20.70;8.52;;;5.70;99.90;;;;;;5043226;28;20029;-62
2023/04/07 05:01:43;;;;;;;19.05;8.43;;;5.70;99.90;;;;;;5060300;28;20029;-64
2023/04/07 05:04:09;;;;;;;22.17;9.93;;;5.70;99.90;;;;;;5061638;28;20095;-64
2023/04/07 05:06:35;;;;;;;20.52;9.00;;;5.70;99.90;;;;;;5059979;28;20033;-69
2023/04/07 05:09:03;;;;;;;24.13;10.50;;;5.70;99.90;;;;;;5068207;28;20550;-62
2023/04/07 05:11:31;;;;;;;28.30;11.35;;;5.60;99.90;;;;;;5069728;28;20029;-64
2023/04/07 05:13:57;;;;;;;27.27;11.73;;;5.60;99.90;;;;;;5056749;28;20148;-62
2023/04/07 05:16:23;;;;;;;24.13;10.82;;;5.70;99.90;;;;;;5061269;28;20067;-62
2023/04/07 05:18:48;;;;;;;28.98;12.35;;;5.70;99.90;;;;;;5038954;28;20056;-67
2023/04/07 05:21:14;;;;;;;27.45;12.15;;;5.60;99.90;;;;;;5060284;28;20117;-63
2023/04/07 05:23:40;;;;;;;28.13;12.02;;;5.70;99.90;;;;;;5062058;28;20457;-62
2023/04/07 05:26:06;;;;;;;29.00;12.05;;;5.70;99.90;;;;;;5070758;28;20028;-61
2023/04/07 05:28:31;;;;;;;26.67;11.75;;;5.70;99.90;;;;;;5064178;28;20381;-61
2023/04/07 05:30:57;;;;;;;22.27;9.40;;;5.70;99.90;;;;;;5054399;28;20089;-61
2023/04/07 05:33:22;;;;;;;18.30;8.52;;;5.70;99.90;;;;;;5060325;28;20930;-62
2023/04/07 05:35:48;;;;;;;21.40;8.45;;;5.80;99.90;;;;;;5065554;28;20047;-62
2023/04/07 05:38:15;;;;;;;20.75;9.48;;;5.70;99.90;;;;;;5060558;28;20437;-62
2023/04/07 05:40:41;;;;;;;27.40;13.40;;;5.70;99.90;;;;;;5057518;28;20051;-62
2023/04/07 05:43:07;;;;;;;26.85;12.23;;;5.60;99.90;;;;;;5065720;28;20036;-61
2023/04/07 05:45:33;;;;;;;36.35;14.30;;;5.60;99.90;;;;;;5053903;28;20554;-62
2023/04/07 05:47:58;;;;;;;38.13;15.32;;;5.60;99.90;;;;;;5068120;28;20024;-62
2023/04/07 05:50:24;;;;;;;29.48;12.80;;;5.60;99.90;;;;;;5065080;28;20040;-64
2023/04/07 05:52:50;;;;;;;28.98;13.00;;;5.50;99.90;;;;;;5068849;28;20190;-61
2023/04/07 05:55:15;;;;;;;29.00;12.00;;;5.50;99.90;;;;;;5070884;28;20028;-61
2023/04/07 05:57:41;;;;;;;30.38;13.30;;;5.50;99.90;;;;;;5068847;28;20389;-61
2023/04/07 06:00:08;;;;;;;35.88;14.18;;;5.50;99.90;;;;;;5067790;28;20032;-62
2023/04/07 06:02:34;;;;;;;32.20;13.90;;;5.50;99.90;;;;;;5059931;28;20028;-64
2023/04/07 06:05:00;;;;;;;31.75;13.63;;;5.40;99.90;;;;;;5058769;28;20025;-61
2023/04/07 06:07:26;;;;;;;33.60;13.40;;;5.40;99.90;;;;;;5050588;28;20120;-65
2023/04/07 06:09:51;;;;;;;29.23;12.57;;;5.40;99.90;;;;;;5060904;28;20028;-61
2023/04/07 06:12:17;;;;;;;28.92;12.63;;;5.50;99.90;;;;;;5070359;28;20445;-66
2023/04/07 06:14:52;;;;;;;33.47;14.27;;;5.50;99.90;;;;;;5064066;28;20091;-64
2023/04/07 06:17:18;;;;;;;31.33;13.52;;;5.50;99.90;;;;;;5064202;28;20036;-64
2023/04/07 06:19:44;;;;;;;33.17;14.13;;;5.50;99.90;;;;;;5063981;28;20517;-64
2023/04/07 06:22:10;;;;;;;35.67;14.82;;;5.50;99.90;;;;;;5068296;28;20028;-62
2023/04/07 06:24:35;;;;;;;35.92;15.05;;;5.60;99.90;;;;;;5067444;28;20121;-61
2023/04/07 06:27:02;;;;;;;35.20;14.57;;;5.60;99.90;;;;;;5068104;28;20032;-63
2023/04/07 06:29:28;;;;;;;36.95;15.50;;;5.60;99.90;;;;;;5060135;28;20036;-64
2023/04/07 06:31:54;;;;;;;36.15;16.08;;;5.60;99.90;;;;;;5069099;28;20025;-63
2023/04/07 06:34:20;;;;;;;36.72;15.15;;;5.60;99.90;;;;;;5064551;28;20427;-62
2023/04/07 06:36:46;;;;;;;38.72;17.08;;;5.60;99.90;;;;;;5067715;28;20033;-61
2023/04/07 06:39:11;;;;;;;43.75;19.00;;;5.70;99.90;;;;;;5037166;28;20029;-64
2023/04/07 06:41:37;;;;;;;67.15;27.13;;;5.70;99.90;;;;;;5053994;28;20036;-61
2023/04/07 06:44:03;;;;;;;89.18;34.20;;;5.70;99.90;;;;;;5056115;28;20029;-64
2023/04/07 06:46:29;;;;;;;95.38;37.25;;;5.70;99.90;;;;;;5058102;28;20036;-64
2023/04/07 06:48:55;;;;;;;88.72;36.30;;;5.70;99.90;;;;;;5049449;28;20389;-66
2023/04/07 06:51:20;;;;;;;62.05;27.98;;;5.80;99.90;;;;;;5052150;28;20405;-61
2023/04/07 06:53:47;;;;;;;93.28;38.47;;;5.80;99.90;;;;;;5056363;28;20057;-61
2023/04/07 06:56:13;;;;;;;44.92;21.08;;;5.80;99.90;;;;;;5069738;28;20035;-63
2023/04/07 06:58:39;;;;;;;55.08;22.42;;;5.70;99.90;;;;;;5063504;28;20028;-67
2023/04/07 07:01:05;;;;;;;53.45;21.98;;;5.80;99.90;;;;;;5055596;28;20059;-61
2023/04/07 07:03:31;;;;;;;82.00;32.42;;;5.80;99.90;;;;;;5054801;28;20085;-63
2023/04/07 07:05:58;;;;;;;39.40;17.85;;;5.80;99.90;;;;;;5067011;28;20040;-61
2023/04/07 07:08:25;;;;;;;35.50;15.73;;;5.80;99.90;;;;;;5054702;28;20029;-63
2023/04/07 07:10:51;;;;;;;33.40;14.70;;;5.80;99.90;;;;;;5054051;28;20028;-63
2023/04/07 07:13:18;;;;;;;35.13;15.45;;;5.70;99.90;;;;;;5067783;28;20039;-63
2023/04/07 07:15:44;;;;;;;40.30;18.48;;;5.70;99.90;;;;;;5040661;28;20037;-69
2023/04/07 07:18:11;;;;;;;54.05;21.20;;;5.80;99.90;;;;;;5054183;28;20059;-66
2023/04/07 07:20:36;;;;;;;60.30;24.45;;;5.80;99.90;;;;;;5061876;28;20077;-61
2023/04/07 07:23:02;;;;;;;61.45;25.45;;;5.90;99.90;;;;;;5061527;28;20468;-61
2023/04/07 07:25:28;;;;;;;61.17;22.98;;;5.90;99.90;;;;;;5062148;28;20059;-61
2023/04/07 07:27:54;;;;;;;74.05;28.30;;;5.90;99.90;;;;;;5058281;28;20024;-64
2023/04/07 07:30:21;;;;;;;52.50;23.25;;;6.00;99.90;;;;;;5049179;28;20147;-62
2023/04/07 07:32:47;;;;;;;38.85;17.90;;;6.00;99.90;;;;;;5052175;28;20142;-61
2023/04/07 07:35:13;;;;;;;33.25;14.75;;;6.00;99.90;;;;;;5069066;28;20036;-62
2023/04/07 07:37:39;;;;;;;34.50;15.00;;;6.00;99.90;;;;;;5067133;28;20034;-62
2023/04/07 07:40:05;;;;;;;38.05;15.82;;;6.00;99.90;;;;;;5049003;28;20059;-62
2023/04/07 07:42:31;;;;;;;40.58;17.08;;;6.00;99.90;;;;;;5046225;28;20392;-64
2023/04/07 07:44:59;;;;;;;39.40;16.95;;;6.10;99.90;;;;;;5068039;28;20029;-61
2023/04/07 07:47:25;;;;;;;40.25;19.33;;;6.20;99.90;;;;;;5057783;28;20544;-61
2023/04/07 07:49:51;;;;;;;38.38;17.25;;;6.20;99.90;;;;;;5049062;28;20049;-63
2023/04/07 07:52:17;;;;;;;33.88;15.38;;;6.30;99.90;;;;;;5063061;28;20024;-61
2023/04/07 07:54:43;;;;;;;33.22;15.23;;;6.30;99.90;;;;;;5065213;28;20844;-67
2023/04/07 07:57:08;;;;;;;34.70;15.27;;;6.30;99.90;;;;;;5065636;28;20717;-63
2023/04/07 07:59:34;;;;;;;38.88;16.08;;;6.40;99.90;;;;;;5044422;28;20028;-62
2023/04/07 08:02:00;;;;;;;35.95;15.93;;;6.40;99.90;;;;;;5066552;28;20095;-62
2023/04/07 08:04:25;;;;;;;32.92;14.93;;;6.50;99.90;;;;;;5051758;28;20060;-62
2023/04/07 08:06:52;;;;;;;35.03;16.13;;;6.60;99.90;;;;;;5043571;28;20089;-62
2023/04/07 08:09:19;;;;;;;37.30;16.52;;;6.60;99.90;;;;;;5064362;28;20051;-61
2023/04/07 08:11:44;;;;;;;34.38;16.27;;;6.60;99.90;;;;;;5065846;28;20033;-68
2023/04/07 08:14:10;;;;;;;40.35;15.45;;;6.70;99.90;;;;;;5063390;28;20051;-61
2023/04/07 08:16:36;;;;;;;36.53;14.65;;;6.70;99.90;;;;;;5047461;28;20024;-61
2023/04/07 08:19:02;;;;;;;32.45;13.77;;;6.70;99.90;;;;;;5059850;28;20707;-62
2023/04/07 08:21:27;;;;;;;42.33;18.50;;;6.70;99.90;;;;;;5050485;28;20048;-61
2023/04/07 08:23:54;;;;;;;38.45;16.88;;;6.70;99.90;;;;;;5060783;28;20036;-63
2023/04/07 08:26:20;;;;;;;34.28;15.18;;;6.90;99.90;;;;;;5056671;28;20029;-62
2023/04/07 08:28:46;;;;;;;34.50;15.48;;;6.90;99.90;;;;;;5066829;28;20054;-67
2023/04/07 08:31:12;;;;;;;38.92;16.27;;;6.90;99.90;;;;;;5061573;28;20451;-61
2023/04/07 08:33:38;;;;;;;50.67;21.75;;;7.00;99.90;;;;;;5061710;28;20036;-62
2023/04/07 08:36:04;;;;;;;39.28;18.35;;;7.10;99.90;;;;;;5047341;28;20033;-63
2023/04/07 08:38:30;;;;;;;44.33;18.50;;;7.20;99.90;;;;;;5059491;28;20039;-62
2023/04/07 08:41:32;;;;;;;56.35;21.65;;;7.20;99.90;;;;;;5049199;28;20033;-61
2023/04/07 08:43:58;;;;;;;49.75;19.42;;;7.30;99.90;;;;;;5029138;28;20051;-61
2023/04/07 08:46:24;;;;;;;35.75;15.93;;;7.40;99.90;;;;;;5061529;28;20071;-63
2023/04/07 08:48:51;;;;;;;39.78;16.92;;;7.50;99.90;;;;;;5061693;28;20049;-62
2023/04/07 08:51:27;;;;;;;33.05;13.80;;;7.50;99.90;;;;;;5067533;28;20047;-61
2023/04/07 08:53:57;;;;;;;32.90;14.25;;;7.50;99.90;;;;;;5064283;28;20064;-63
2023/04/07 08:56:24;;;;;;;29.50;14.15;;;7.60;99.90;;;;;;5061692;28;20079;-63
2023/04/07 08:58:51;;;;;;;31.73;15.18;;;7.80;99.90;;;;;;5048611;28;20021;-61
2023/04/07 09:01:18;;;;;;;26.17;11.77;;;7.90;99.90;;;;;;5059595;28;20111;-61
2023/04/07 09:03:45;;;;;;;28.48;13.20;;;7.90;99.90;;;;;;5064897;28;20036;-68
2023/04/07 09:06:11;;;;;;;28.50;12.18;;;8.10;99.90;;;;;;5053578;28;20016;-64
2023/04/07 09:08:36;;;;;;;38.60;15.90;;;8.10;99.90;;;;;;5065982;28;20021;-62
2023/04/07 09:11:02;;;;;;;24.48;11.30;;;8.20;99.90;;;;;;5065319;28;20452;-62
2023/04/07 09:13:28;;;;;;;25.77;10.43;;;8.20;99.90;;;;;;5060575;28;20043;-65
2023/04/07 09:15:54;;;;;;;24.13;10.65;;;8.20;99.90;;;;;;5059973;28;20067;-65
2023/04/07 09:18:20;;;;;;;28.10;12.07;;;8.20;99.90;;;;;;5063885;28;20055;-61
2023/04/07 09:21:00;;;;;;;22.23;10.48;;;8.20;99.90;;;;;;5067711;28;20465;-68
2023/04/07 09:23:28;;;;;;;56.80;19.33;;;8.20;99.90;;;;;;5054080;28;20063;-62
2023/04/07 09:25:54;;;;;;;44.33;15.60;;;8.20;99.90;;;;;;5063828;28;20488;-63
2023/04/07 09:28:21;;;;;;;46.15;17.48;;;8.20;99.90;;;;;;5068582;28;20024;-62
2023/04/07 09:30:54;;;;;;;19.70;9.43;;;8.30;99.90;;;;;;5069996;28;20345;-68
2023/04/07 09:33:27;;;;;;;72.60;23.05;;;8.20;99.90;;;;;;5069275;28;20067;-62
2023/04/07 09:35:53;;;;;;;41.63;14.82;;;8.30;99.90;;;;;;5064169;28;20491;-64
2023/04/07 09:38:19;;;;;;;151.43;26.33;;;8.40;99.90;;;;;;5055214;28;20381;-64
2023/04/07 09:40:44;;;;;;;23.60;9.50;;;8.50;99.90;;;;;;5054947;28;20043;-62
2023/04/07 09:43:19;;;;;;;29.65;12.45;;;8.50;99.90;;;;;;5063165;28;20271;-61
2023/04/07 09:45:45;;;;;;;23.20;9.68;;;8.50;99.90;;;;;;5052153;28;20108;-65
2023/04/07 09:48:20;;;;;;;17.67;7.93;;;8.70;99.90;;;;;;5068082;28;20733;-61
2023/04/07 09:50:48;;;;;;;20.40;9.13;;;8.70;99.90;;;;;;5070080;28;20055;-61
2023/04/07 09:53:21;;;;;;;15.90;7.80;;;8.70;99.90;;;;;;5063674;28;20059;-65
2023/04/07 09:55:48;;;;;;;19.85;9.45;;;8.80;99.90;;;;;;5060134;28;20061;-62
2023/04/07 09:58:15;;;;;;;16.52;8.52;;;8.90;99.90;;;;;;5066426;28;20077;-64
2023/04/07 10:00:41;;;;;;;15.75;7.72;;;9.00;99.90;;;;;;5065815;28;20020;-62
2023/04/07 10:03:07;;;;;;;15.02;7.93;;;8.90;99.90;;;;;;5065238;28;20060;-63
2023/04/07 10:05:35;;;;;;;15.88;6.90;;;9.00;99.90;;;;;;5063223;28;20048;-64
2023/04/07 10:08:01;;;;;;;18.80;9.30;;;9.00;99.90;;;;;;5037951;28;20845;-63
2023/04/07 11:52:08;;;;;;;13.43;6.45;;;10.60;99.90;;;;;;5123967;27;20702;-69
2023/04/07 11:54:48;;;;;;;12.57;6.32;;;10.60;99.90;;;;;;5117903;28;20081;-67
2023/04/07 11:57:26;;;;;;;16.27;6.57;;;10.70;99.90;;;;;;5103966;28;20039;-66
2023/04/07 12:00:06;;;;;;;13.70;6.13;;;11.00;99.90;;;;;;5114992;28;20039;-65
2023/04/07 12:02:35;;;;;;;20.45;7.10;;;11.20;99.90;;;;;;5122847;28;20058;-68
2023/04/07 12:05:01;;;;;;;15.48;5.95;;;11.30;99.90;;;;;;5106029;28;20111;-67
2023/04/07 12:07:27;;;;;;;15.35;6.38;;;11.20;99.90;;;;;;5087730;28;20435;-63
2023/04/07 12:09:53;;;;;;;11.60;5.85;;;11.20;99.90;;;;;;5100264;28;20186;-69
2023/04/07 12:12:29;;;;;;;12.20;5.75;;;11.30;99.90;;;;;;5098638;28;20065;-64
2023/04/07 12:14:55;;;;;;;12.30;6.20;;;11.30;99.90;;;;;;5098443;28;20114;-64
2023/04/07 12:17:26;;;;;;;13.90;6.63;;;11.30;99.90;;;;;;5089008;28;20024;-65
2023/04/07 12:19:52;;;;;;;13.65;8.27;;;11.30;99.90;;;;;;5090956;28;20051;-69
2023/04/07 12:22:18;;;;;;;13.73;7.38;;;11.30;99.90;;;;;;5079901;28;20104;-66
2023/04/07 12:24:45;;;;;;;14.52;7.25;;;11.30;99.90;;;;;;5062962;28;20041;-68
2023/04/07 12:27:11;;;;;;;11.93;6.60;;;11.10;99.90;;;;;;5053398;28;20094;-63
2023/04/07 12:29:37;;;;;;;12.82;6.55;;;11.10;99.90;;;;;;5049237;28;20135;-67
2023/04/07 12:32:04;;;;;;;12.55;6.70;;;11.00;99.90;;;;;;5051196;28;20064;-69
2023/04/07 12:34:29;;;;;;;10.95;6.32;;;11.00;99.90;;;;;;5048166;28;20032;-67
2023/04/07 12:36:55;;;;;;;13.90;7.05;;;11.20;99.90;;;;;;5040613;28;20530;-68
2023/04/07 12:39:21;;;;;;;11.10;6.70;;;11.30;99.90;;;;;;5055480;28;20033;-68
2023/04/07 12:41:51;;;;;;;15.38;8.55;;;11.30;99.90;;;;;;5039750;28;20336;-67
2023/04/07 12:44:17;;;;;;;13.20;7.45;;;11.30;99.90;;;;;;5058246;28;20527;-68
2023/04/07 12:46:43;;;;;;;12.52;7.25;;;11.40;99.90;;;;;;5046289;28;20108;-65
2023/04/07 12:49:09;;;;;;;13.93;6.88;;;11.50;99.90;;;;;;5050661;28;20075;-69
2023/04/07 12:51:36;;;;;;;19.88;7.82;;;11.60;99.90;;;;;;5046416;28;20059;-66
2023/04/07 12:54:02;;;;;;;10.45;5.90;;;11.70;99.90;;;;;;5043232;28;20073;-70
2023/04/07 12:56:28;;;;;;;12.05;6.15;;;11.80;99.90;;;;;;5055708;28;20040;-67
2023/04/07 12:58:54;;;;;;;14.25;6.70;;;11.90;99.90;;;;;;5043796;28;20742;-65
2023/04/07 13:01:20;;;;;;;12.73;6.55;;;12.00;99.90;;;;;;5049395;28;20052;-64
2023/04/07 13:03:46;;;;;;;12.10;5.85;;;12.30;99.90;;;;;;5035837;28;20036;-63
2023/04/07 13:06:12;;;;;;;16.60;7.22;;;12.40;99.90;;;;;;5036862;28;20050;-64
2023/04/07 13:08:38;;;;;;;16.90;7.13;;;12.70;99.90;;;;;;5053621;28;20524;-63
2023/04/07 13:11:04;;;;;;;19.73;8.57;;;12.80;99.90;;;;;;5046221;28;20122;-66
2023/04/07 13:13:30;;;;;;;9.65;4.88;;;12.90;99.90;;;;;;5059125;28;20457;-63
2023/04/07 13:15:56;;;;;;;11.02;5.07;;;12.80;99.90;;;;;;5040444;28;20100;-68
2023/04/07 13:18:22;;;;;;;11.65;5.30;;;12.90;99.90;;;;;;5053521;28;20028;-65
2023/04/07 13:20:48;;;;;;;9.20;4.80;;;13.10;99.90;;;;;;5059836;28;20146;-63
2023/04/07 13:23:14;;;;;;;10.88;5.18;;;13.10;99.90;;;;;;5048537;28;20040;-66
2023/04/07 13:25:40;;;;;;;9.18;5.15;;;13.20;99.90;;;;;;5051843;28;20111;-64
2023/04/07 13:28:06;;;;;;;11.48;5.78;;;13.30;99.90;;;;;;5047598;28;20369;-64
2023/04/07 13:30:32;;;;;;;12.00;5.53;;;13.40;99.90;;;;;;5049576;28;20108;-65
2023/04/07 13:32:58;;;;;;;10.48;4.90;;;13.40;99.90;;;;;;5029843;28;20652;-71
2023/04/07 13:35:23;;;;;;;11.50;4.88;;;13.10;99.90;;;;;;5033030;28;20035;-64
2023/04/07 13:37:49;;;;;;;8.30;3.85;;;13.10;99.90;;;;;;5050402;28;20025;-65
2023/04/07 13:40:15;;;;;;;12.73;4.05;;;13.00;99.90;;;;;;5046491;28;20032;-66
2023/04/07 13:42:40;;;;;;;7.80;4.40;;;13.10;99.90;;;;;;5030301;28;20033;-63
2023/04/07 13:45:07;;;;;;;9.20;4.03;;;13.20;99.90;;;;;;5043744;28;20064;-69
2023/04/07 13:47:33;;;;;;;10.93;4.60;;;13.20;99.90;;;;;;5049499;28;20097;-63
2023/04/07 13:50:00;;;;;;;9.27;4.13;;;13.00;99.90;;;;;;5046951;28;20091;-68
2023/04/07 13:52:26;;;;;;;10.57;4.43;;;12.90;99.90;;;;;;5045056;28;20048;-64
2023/04/07 13:54:52;;;;;;;10.52;4.70;;;13.10;99.90;;;;;;5050993;28;20033;-64
2023/04/07 13:57:19;;;;;;;10.52;4.30;;;13.10;99.90;;;;;;5048661;28;20036;-63
2023/04/07 13:59:51;;;;;;;11.68;4.70;;;13.10;99.90;;;;;;5049163;28;20021;-65
2023/04/07 14:02:18;;;;;;;10.18;4.35;;;13.00;99.90;;;;;;5043691;28;20075;-63
2023/04/07 14:04:44;;;;;;;10.68;3.70;;;13.00;99.90;;;;;;5048004;28;20025;-67
2023/04/07 14:07:10;;;;;;;9.25;4.20;;;12.80;99.90;;;;;;5058886;28;20488;-64
2023/04/07 14:09:36;;;;;;;8.48;4.22;;;12.70;99.90;;;;;;5030283;28;20033;-63
2023/04/07 14:12:02;;;;;;;8.93;3.80;;;13.00;99.90;;;;;;5033319;28;20029;-70
2023/04/07 14:14:28;;;;;;;7.40;3.92;;;13.00;99.90;;;;;;5048216;28;20054;-64
2023/04/07 14:16:53;;;;;;;10.40;4.00;;;13.10;99.90;;;;;;5042632;28;20061;-64
2023/04/07 14:19:23;;;;;;;6.25;3.75;;;13.10;99.90;;;;;;5034479;28;20717;-64
2023/04/07 14:21:50;;;;;;;8.30;4.18;;;13.10;99.90;;;;;;5044081;28;20052;-66